Time;durP1;ratioP1;P1;durP2;ratioP2;P2;SDS_P1;SDS_P2;PMS_P1;PMS_P2;Temp;Humidity;BMP_temperature;BMP_pressure;BME280_temperature;BME280_humidity;BME280_pressure;Samples;Min_cycle;Max_cycle;Signal;HPM_P1;HPM_P2
2023/01/18 00:02:04;;;;;;;7.80;5.68;;;;;;;-14.34;69.66;100750.97;4890446;28;20465;-60
2023/01/18 00:04:37;;;;;;;9.57;5.10;;;;;;;-14.27;69.41;100746.50;4891551;28;20063;-59
2023/01/18 00:07:12;;;;;;;7.75;4.53;;;;;;;-14.29;69.11;100742.97;4890902;28;20060;-58
2023/01/18 00:09:45;;;;;;;16.65;6.32;;;;;;;-14.28;68.74;100734.69;4899038;28;20112;-59
2023/01/18 00:12:21;;;;;;;11.60;4.88;;;;;;;-14.17;68.96;100739.03;4889313;28;20048;-59
2023/01/18 00:14:55;;;;;;;7.63;4.35;;;;;;;-14.12;69.03;100737.81;4891274;28;20508;-59
2023/01/18 00:17:29;;;;;;;15.25;7.00;;;;;;;-14.00;69.04;100748.94;4877672;28;20052;-58
2023/01/18 00:20:04;;;;;;;23.75;10.88;;;;;;;-13.96;69.04;100745.06;4889989;28;20139;-59
2023/01/18 00:22:40;;;;;;;12.18;6.85;;;;;;;-13.94;69.04;100734.41;4879155;28;20066;-59
2023/01/18 00:25:14;;;;;;;14.55;6.72;;;;;;;-13.93;68.52;100736.16;4890221;28;20277;-59
2023/01/18 00:27:49;;;;;;;10.27;5.22;;;;;;;-13.87;68.37;100732.44;4879876;28;20110;-60
2023/01/18 00:30:24;;;;;;;10.63;4.85;;;;;;;-13.71;68.82;100733.03;4889143;28;20060;-60
2023/01/18 00:32:57;;;;;;;13.73;5.38;;;;;;;-13.60;68.94;100722.28;4878366;28;20077;-60
2023/01/18 00:35:28;;;;;;;9.88;5.50;;;;;;;-13.92;69.06;100664.22;4888602;28;20052;-60
2023/01/18 00:38:00;;;;;;;9.43;5.78;;;;;;;-13.45;68.92;100746.97;4889872;28;20041;-60
2023/01/18 00:40:31;;;;;;;14.40;7.78;;;;;;;-13.72;67.73;100741.31;4889118;28;20048;-60
2023/01/18 00:45:49;;;;;;;11.07;6.03;;;;;;;-14.36;68.56;100752.44;4879766;28;20059;-59
2023/01/18 00:48:20;;;;;;;11.82;5.78;;;;;;;-14.57;68.93;100755.59;4889934;28;20048;-60
2023/01/18 00:50:50;;;;;;;10.70;6.50;;;;;;;-14.62;69.49;100761.81;4890971;28;20106;-59
2023/01/18 00:53:23;;;;;;;9.15;5.28;;;;;;;-14.39;70.42;100757.19;4891536;28;20071;-60
2023/01/18 00:55:53;;;;;;;13.80;6.53;;;;;;;-14.44;70.62;100758.41;4889516;28;20121;-60
2023/01/18 00:58:24;;;;;;;7.82;4.70;;;;;;;-14.35;71.58;100754.22;4897750;28;20870;-60
2023/01/18 01:00:55;;;;;;;7.00;5.25;;;;;;;-14.11;72.12;100739.56;4904196;28;20057;-59
2023/01/18 01:03:25;;;;;;;9.73;5.20;;;;;;;-13.86;72.33;100726.66;4921987;28;20049;-59
2023/01/18 01:08:49;;;;;;;9.98;5.22;;;;;;;-13.42;72.60;100742.22;4991719;28;20275;-60
2023/01/18 01:11:19;;;;;;;7.70;4.60;;;;;;;-13.38;72.01;100734.16;4990470;28;20057;-59
2023/01/18 01:27:53;;;;;;;11.82;6.70;;;;;;;-14.74;71.15;100680.44;4890732;28;20053;-59
2023/01/18 01:30:24;;;;;;;12.88;5.70;;;;;;;-14.65;71.42;100721.38;4893771;28;20164;-60
2023/01/18 01:32:55;;;;;;;12.43;6.55;;;;;;;-14.68;71.63;100726.13;4903528;28;20081;-59
2023/01/18 01:35:26;;;;;;;13.20;6.50;;;;;;;-14.76;72.13;100729.56;4900399;28;20175;-59
2023/01/18 01:37:57;;;;;;;10.25;6.38;;;;;;;-14.68;71.44;100731.13;4904786;28;20059;-59
2023/01/18 01:40:31;;;;;;;14.55;7.03;;;;;;;-14.68;71.50;100736.16;4906065;28;20131;-59
2023/01/18 01:43:03;;;;;;;8.43;5.50;;;;;;;-14.60;72.11;100725.16;4905134;28;20113;-60
2023/01/18 01:45:33;;;;;;;12.18;6.57;;;;;;;-14.39;71.87;100726.19;4903342;28;20076;-60
2023/01/18 01:48:04;;;;;;;12.05;6.22;;;;;;;-14.17;72.25;100706.41;4908512;28;20095;-60
2023/01/18 01:50:38;;;;;;;11.27;5.63;;;;;;;-13.69;71.74;100716.47;4902144;28;20064;-60
2023/01/18 01:53:09;;;;;;;10.95;5.88;;;;;;;-13.43;71.08;100715.31;4903223;28;20075;-59
2023/01/18 01:55:42;;;;;;;13.07;5.72;;;;;;;-13.23;71.34;100709.41;4905741;28;20120;-60
2023/01/18 01:58:17;;;;;;;7.32;4.63;;;;;;;-13.22;70.44;100707.03;4910260;28;20052;-60
2023/01/18 02:00:47;;;;;;;9.10;4.95;;;;;;;-13.08;70.75;100706.59;4873943;28;20064;-60
2023/01/18 02:03:18;;;;;;;9.82;5.00;;;;;;;-12.99;70.90;100705.59;4886473;28;20114;-60
2023/01/18 02:05:53;;;;;;;9.60;5.18;;;;;;;-12.88;70.76;100699.81;4887603;28;20110;-60
2023/01/18 02:08:25;;;;;;;8.40;4.80;;;;;;;-12.92;70.53;100687.75;4883797;28;20485;-60
2023/01/18 02:10:57;;;;;;;9.10;4.40;;;;;;;-13.57;71.41;100571.75;4885815;28;20103;-60
2023/01/18 02:13:29;;;;;;;12.70;5.82;;;;;;;-12.77;71.84;100673.91;4886845;28;20048;-60
2023/01/18 02:16:11;;;;;;;16.65;7.95;;;;;;;-12.69;71.61;100672.88;4885502;28;20079;-60
2023/01/18 02:18:53;;;;;;;50.58;16.48;;;;;;;-12.55;72.35;100670.63;4871366;28;20049;-60
2023/01/18 02:21:29;;;;;;;27.15;10.45;;;;;;;-12.30;72.41;100669.34;4872546;28;20069;-60
2023/01/18 02:24:34;;;;;;;21.02;8.65;;;;;;;-12.21;72.27;100654.97;4885720;28;20064;-58
2023/01/18 02:27:19;;;;;;;14.27;6.38;;;;;;;-12.10;72.66;100647.38;4874447;28;20057;-58
2023/01/18 02:30:20;;;;;;;12.25;5.13;;;;;;;-11.91;72.64;100619.47;4873863;28;20060;-59
2023/01/18 02:33:07;;;;;;;8.88;4.13;;;;;;;-11.41;72.64;100651.09;4882817;28;20159;-59
2023/01/18 02:35:47;;;;;;;8.48;5.00;;;;;;;-10.97;72.18;100635.94;4872780;28;20369;-58
2023/01/18 02:38:26;;;;;;;10.18;5.82;;;;;;;-11.25;71.70;100526.16;4890683;28;20056;-59
2023/01/18 02:41:10;;;;;;;9.70;5.63;;;;;;;-10.30;71.41;100639.16;4873177;28;20063;-59
2023/01/18 02:46:34;;;;;;;6.40;3.80;;;;;;;-9.95;70.53;100628.13;4876675;28;20053;-59
2023/01/18 02:49:08;;;;;;;8.38;4.13;;;;;;;-10.03;69.87;100613.31;4873730;28;20055;-60
2023/01/18 02:51:39;;;;;;;11.30;5.03;;;;;;;-9.87;69.90;100632.06;4884493;28;20048;-59
2023/01/18 02:54:15;;;;;;;11.38;5.80;;;;;;;-10.19;69.00;100623.06;4886038;28;20158;-60
2023/01/18 02:56:50;;;;;;;12.70;5.88;;;;;;;-10.65;67.10;100617.25;4875746;28;20053;-60
2023/01/18 02:59:26;;;;;;;12.27;5.63;;;;;;;-11.16;66.48;100623.56;4891348;28;20123;-59
2023/01/18 03:02:02;;;;;;;11.38;5.70;;;;;;;-11.60;67.45;100627.75;4907381;28;20066;-60
2023/01/18 03:04:37;;;;;;;12.13;6.30;;;;;;;-11.86;67.80;100628.28;4902985;28;20447;-61
2023/01/18 03:07:13;;;;;;;9.63;5.05;;;;;;;-12.20;68.27;100626.50;4891505;28;20049;-60
2023/01/18 03:09:45;;;;;;;9.07;5.05;;;;;;;-12.28;68.51;100627.56;4898915;28;20453;-60
2023/01/18 03:12:23;;;;;;;12.10;5.85;;;;;;;-12.33;68.88;100627.91;4901429;28;20106;-60
2023/01/18 03:15:03;;;;;;;7.93;4.32;;;;;;;-12.44;69.16;100629.59;4898052;28;20506;-60
2023/01/18 03:17:42;;;;;;;9.13;4.72;;;;;;;-12.30;69.62;100619.00;4894166;28;20050;-60
2023/01/18 03:20:15;;;;;;;8.77;4.60;;;;;;;-12.06;69.79;100616.63;4900626;28;20049;-60
2023/01/18 03:25:41;;;;;;;10.18;4.32;;;;;;;-11.84;69.37;100622.56;4892781;28;20399;-60
2023/01/18 03:34:03;;;;;;;10.05;5.50;;;;;;;-12.02;69.44;100560.69;4888878;28;20055;-60
2023/01/18 03:36:37;;;;;;;12.85;6.35;;;;;;;-11.42;70.13;100609.00;4899926;28;20062;-61
2023/01/18 03:39:11;;;;;;;13.45;6.57;;;;;;;-11.38;69.44;100605.03;4902609;28;20049;-60
2023/01/18 03:41:47;;;;;;;12.80;6.47;;;;;;;-11.19;70.06;100597.25;4902677;28;20053;-60
2023/01/18 03:44:23;;;;;;;9.88;5.90;;;;;;;-10.88;70.11;100606.34;4892168;28;20052;-60
2023/01/18 03:46:54;;;;;;;13.43;6.30;;;;;;;-10.63;69.91;100603.09;4898634;28;20128;-61
2023/01/18 03:49:27;;;;;;;14.02;5.50;;;;;;;-10.43;70.05;100602.91;4905308;28;20386;-60
2023/01/18 03:52:15;;;;;;;12.65;5.47;;;;;;;-10.29;70.37;100590.38;4902836;28;20044;-60
2023/01/18 03:54:58;;;;;;;10.52;4.15;;;;;;;-10.13;70.33;100608.38;4891037;28;20044;-61
2023/01/18 03:57:33;;;;;;;10.77;5.03;;;;;;;-10.37;70.64;100567.09;4891003;28;20048;-61
2023/01/18 04:00:10;;;;;;;11.25;4.55;;;;;;;-10.14;70.45;100599.00;4896908;28;20058;-61
2023/01/18 04:02:41;;;;;;;7.45;3.97;;;;;;;-10.13;70.73;100618.47;4901857;28;20048;-61
2023/01/18 04:05:14;;;;;;;8.43;4.10;;;;;;;-10.74;70.30;100523.16;4901501;28;20052;-60
2023/01/18 04:07:45;;;;;;;8.93;4.25;;;;;;;-10.08;70.86;100596.94;4894742;28;20058;-61
2023/01/18 04:10:16;;;;;;;11.27;4.15;;;;;;;-9.93;70.45;100609.78;4902503;28;20051;-61
2023/01/18 04:12:47;;;;;;;9.73;4.53;;;;;;;-9.86;70.78;100614.50;4901835;28;20051;-60
2023/01/18 04:15:18;;;;;;;8.93;3.92;;;;;;;-9.82;70.36;100610.53;4900611;28;20049;-61
2023/01/18 04:17:52;;;;;;;8.93;4.35;;;;;;;-9.93;69.91;100606.34;4901141;28;20063;-61
2023/01/18 04:20:24;;;;;;;11.80;4.13;;;;;;;-10.12;69.74;100600.00;4902067;28;20881;-60
2023/01/18 04:22:55;;;;;;;6.53;3.83;;;;;;;-10.24;70.02;100609.22;4894713;28;20068;-61
2023/01/18 04:25:26;;;;;;;6.82;3.63;;;;;;;-10.27;70.55;100611.53;4899776;28;20041;-61
2023/01/18 04:27:57;;;;;;;9.57;3.67;;;;;;;-10.56;70.81;100585.06;4902084;28;20048;-61
2023/01/18 04:30:27;;;;;;;7.60;4.28;;;;;;;-10.35;70.71;100621.13;4901733;28;20060;-61
2023/01/18 04:32:58;;;;;;;5.90;3.67;;;;;;;-10.32;70.05;100620.47;4901362;28;20041;-61
2023/01/18 04:35:31;;;;;;;11.07;4.50;;;;;;;-10.33;70.25;100633.84;4901161;28;20053;-61
2023/01/18 04:38:03;;;;;;;6.85;3.85;;;;;;;-10.31;69.90;100624.75;4908888;28;20137;-61
2023/01/18 04:40:33;;;;;;;6.07;3.42;;;;;;;-10.35;69.74;100617.75;4895927;28;20088;-61
2023/01/18 04:43:04;;;;;;;7.25;4.10;;;;;;;-10.50;69.95;100630.13;4905475;28;20113;-61
2023/01/18 04:45:35;;;;;;;8.00;4.20;;;;;;;-10.67;70.67;100626.34;4902408;28;20056;-61
2023/01/18 04:48:08;;;;;;;8.30;3.70;;;;;;;-10.83;71.55;100623.44;4901703;28;20091;-61
2023/01/18 04:50:45;;;;;;;9.95;4.18;;;;;;;-11.10;71.93;100603.00;4901352;28;20044;-61
2023/01/18 04:53:16;;;;;;;10.82;6.00;;;;;;;-10.98;72.06;100639.25;4890690;28;20049;-61
2023/01/18 04:55:46;;;;;;;8.27;4.07;;;;;;;-11.16;72.98;100652.97;4899949;28;20048;-61
2023/01/18 04:58:17;;;;;;;12.68;6.03;;;;;;;-11.35;73.99;100661.66;4901813;28;20075;-61
2023/01/18 05:00:48;;;;;;;9.95;4.95;;;;;;;-11.39;74.15;100659.66;4899515;28;20583;-60
2023/01/18 05:03:19;;;;;;;11.38;5.18;;;;;;;-11.46;74.58;100662.47;4891824;28;20064;-61
2023/01/18 05:05:51;;;;;;;5.97;4.13;;;;;;;-11.43;74.13;100667.78;4898134;28;20724;-61
2023/01/18 05:08:22;;;;;;;13.18;5.47;;;;;;;-11.52;74.77;100672.09;4901251;28;20114;-60
2023/01/18 05:10:52;;;;;;;8.70;5.50;;;;;;;-11.60;75.16;100675.66;4901029;28;20060;-61
2023/01/18 05:13:23;;;;;;;8.63;4.70;;;;;;;-11.56;75.16;100675.13;4910617;28;20232;-61
2023/01/18 05:15:57;;;;;;;9.32;4.53;;;;;;;-11.55;75.12;100681.94;4898147;28;20052;-60
2023/01/18 05:18:28;;;;;;;8.48;4.70;;;;;;;-11.49;75.16;100692.50;4901049;28;20049;-61
2023/01/18 05:21:01;;;;;;;8.05;4.30;;;;;;;-11.48;75.13;100694.28;4900639;28;20750;-60
2023/01/18 05:23:31;;;;;;;8.95;5.32;;;;;;;-11.54;74.81;100693.78;4900217;28;20053;-60
2023/01/18 05:26:02;;;;;;;12.77;5.22;;;;;;;-12.04;75.09;100612.59;4901709;28;20473;-61
2023/01/18 05:28:32;;;;;;;11.85;5.03;;;;;;;-12.03;75.23;100634.50;4901971;28;20110;-60
2023/01/18 05:31:03;;;;;;;9.57;4.00;;;;;;;-11.65;75.28;100702.16;4900340;28;20927;-62
2023/01/18 05:33:34;;;;;;;7.53;4.47;;;;;;;-11.70;75.58;100706.84;4905667;28;20591;-61
2023/01/18 05:36:07;;;;;;;9.27;5.00;;;;;;;-11.72;75.28;100714.28;4903466;28;20547;-60
2023/01/18 05:38:38;;;;;;;11.00;5.25;;;;;;;-12.12;75.37;100648.91;4900845;28;20060;-61
2023/01/18 05:41:08;;;;;;;10.40;4.28;;;;;;;-11.81;75.47;100723.59;4899856;28;20056;-60
2023/01/18 05:43:39;;;;;;;11.35;4.57;;;;;;;-11.83;75.71;100715.06;4900700;28;20049;-60
2023/01/18 05:46:09;;;;;;;8.57;3.88;;;;;;;-11.84;76.10;100725.91;4901033;28;20070;-60
2023/01/18 05:48:40;;;;;;;7.95;3.38;;;;;;;-11.84;75.92;100728.41;4900646;28;20825;-61
2023/01/18 05:51:15;;;;;;;8.88;5.10;;;;;;;-11.94;76.74;100731.00;4897633;28;20052;-60
2023/01/18 05:53:45;;;;;;;11.82;5.75;;;;;;;-11.99;77.22;100738.19;4889628;28;20064;-60
2023/01/18 05:56:16;;;;;;;9.45;5.03;;;;;;;-12.04;77.20;100741.09;4900640;28;20044;-60
2023/01/18 05:58:47;;;;;;;7.90;4.55;;;;;;;-12.20;78.46;100749.94;4898141;28;20768;-61
2023/01/18 06:01:17;;;;;;;12.55;5.35;;;;;;;-12.32;78.53;100748.94;4899176;28;20060;-61
2023/01/18 06:03:50;;;;;;;9.48;4.80;;;;;;;-12.45;78.83;100758.75;4898286;28;20052;-60
2023/01/18 06:06:23;;;;;;;9.77;5.15;;;;;;;-12.46;78.82;100772.06;4898581;28;20072;-61
2023/01/18 06:08:54;;;;;;;5.50;3.13;;;;;;;-12.48;78.25;100773.59;4897584;28;20605;-61
2023/01/18 06:11:24;;;;;;;9.68;4.88;;;;;;;-12.62;77.99;100764.91;4901997;28;20637;-61
2023/01/18 06:13:55;;;;;;;9.48;4.85;;;;;;;-12.55;78.14;100781.38;4899269;28;20054;-61
2023/01/18 06:16:25;;;;;;;11.35;5.05;;;;;;;-12.57;78.25;100782.91;4900652;28;20057;-61
2023/01/18 06:18:56;;;;;;;7.97;4.40;;;;;;;-12.54;78.08;100790.72;4899771;28;20053;-61
2023/01/18 06:21:28;;;;;;;8.70;4.60;;;;;;;-12.56;78.02;100794.72;4896871;28;20057;-61
2023/01/18 06:23:59;;;;;;;8.05;4.35;;;;;;;-12.60;77.79;100784.41;4898338;28;20064;-61
2023/01/18 06:26:30;;;;;;;8.95;5.00;;;;;;;-12.56;77.43;100804.81;4900404;28;20110;-61
2023/01/18 06:29:00;;;;;;;9.85;4.65;;;;;;;-12.62;77.16;100801.03;4898364;28;20057;-61
2023/01/18 06:31:31;;;;;;;9.40;4.75;;;;;;;-12.61;76.97;100812.84;4899443;28;20056;-61
2023/01/18 06:34:08;;;;;;;5.25;3.47;;;;;;;-12.65;76.85;100825.94;4901515;28;20057;-61
2023/01/18 06:36:40;;;;;;;10.75;5.22;;;;;;;-12.67;76.94;100827.44;4889609;28;20210;-61
2023/01/18 06:39:12;;;;;;;13.27;5.20;;;;;;;-12.71;76.48;100825.41;4900730;28;20048;-61
2023/01/18 06:41:42;;;;;;;13.15;4.97;;;;;;;-12.79;76.09;100823.88;4900870;28;20057;-61
2023/01/18 06:44:13;;;;;;;10.60;4.82;;;;;;;-12.85;75.82;100830.91;4900531;28;20052;-60
2023/01/18 06:46:45;;;;;;;12.07;4.55;;;;;;;-12.97;75.91;100834.91;4899162;28;20251;-61
2023/01/18 06:49:15;;;;;;;9.02;4.57;;;;;;;-12.94;75.35;100837.66;4902212;28;20099;-61
2023/01/18 06:51:48;;;;;;;10.13;5.15;;;;;;;-13.26;75.01;100805.59;4901957;28;20056;-61
2023/01/18 06:54:18;;;;;;;12.98;5.05;;;;;;;-13.10;74.80;100853.97;4907438;28;20052;-60
2023/01/18 06:56:49;;;;;;;8.30;4.47;;;;;;;-13.16;74.73;100858.44;4899709;28;20095;-61
2023/01/18 06:59:20;;;;;;;11.63;4.93;;;;;;;-13.27;74.65;100854.16;4900770;28;20071;-60
2023/01/18 07:01:53;;;;;;;16.73;5.20;;;;;;;-13.24;74.83;100864.44;4901485;28;20201;-60
2023/01/18 07:04:24;;;;;;;11.75;5.63;;;;;;;-13.38;74.62;100859.88;4898032;28;20053;-61
2023/01/18 07:06:56;;;;;;;10.27;3.67;;;;;;;-14.17;74.69;100751.59;4903584;28;20054;-61
2023/01/18 07:09:26;;;;;;;10.07;4.57;;;;;;;-13.51;74.87;100868.84;4900803;28;20071;-61
2023/01/18 07:11:57;;;;;;;5.90;3.90;;;;;;;-13.52;75.73;100867.09;4902621;28;20056;-61
2023/01/18 07:14:27;;;;;;;7.15;4.28;;;;;;;-13.49;76.16;100882.44;4902353;28;20056;-61
2023/01/18 07:16:58;;;;;;;8.25;3.75;;;;;;;-13.48;76.29;100889.25;4901492;28;20067;-61
2023/01/18 07:19:30;;;;;;;10.18;3.70;;;;;;;-13.45;77.37;100887.72;4901205;28;20432;-60
2023/01/18 07:22:02;;;;;;;6.65;4.28;;;;;;;-13.48;78.44;100904.31;4902366;28;20087;-60
2023/01/18 07:24:33;;;;;;;7.50;4.38;;;;;;;-13.45;79.02;100902.81;4902091;28;20654;-60
2023/01/18 07:27:03;;;;;;;8.95;4.60;;;;;;;-13.50;78.93;100910.84;4898730;28;20075;-61
2023/01/18 07:29:35;;;;;;;10.52;4.75;;;;;;;-13.52;78.81;100926.53;4906721;28;20534;-60
2023/01/18 07:32:05;;;;;;;7.95;4.72;;;;;;;-13.52;78.51;100929.94;4899475;28;20435;-60
2023/01/18 07:34:36;;;;;;;13.07;4.93;;;;;;;-13.57;78.46;100933.66;4907392;28;20048;-60
2023/01/18 07:37:08;;;;;;;12.48;6.43;;;;;;;-13.70;78.33;100921.63;4899991;28;20898;-60
2023/01/18 07:39:39;;;;;;;6.93;4.55;;;;;;;-13.65;78.42;100948.78;4902027;28;20056;-60
2023/01/18 07:42:11;;;;;;;10.43;4.65;;;;;;;-13.68;78.49;100954.41;4902535;28;20472;-60
2023/01/18 07:44:41;;;;;;;9.77;5.65;;;;;;;-14.12;78.37;100909.44;4901899;28;20243;-60
2023/01/18 07:47:12;;;;;;;11.80;5.45;;;;;;;-13.73;78.65;100960.66;4901768;28;20094;-60
2023/01/18 07:49:44;;;;;;;14.45;6.28;;;;;;;-13.72;78.64;100972.50;4900577;28;20651;-61
2023/01/18 07:52:16;;;;;;;11.73;5.50;;;;;;;-13.72;78.33;100972.50;4895126;28;20191;-60
2023/01/18 07:54:49;;;;;;;11.45;5.68;;;;;;;-13.74;78.22;100981.50;4901121;28;20052;-60
2023/01/18 07:57:20;;;;;;;12.77;6.15;;;;;;;-13.84;78.33;100976.41;4901337;28;20056;-60
2023/01/18 07:59:50;;;;;;;10.80;6.30;;;;;;;-13.78;78.47;100994.53;4901337;28;20056;-60
2023/01/18 08:02:24;;;;;;;14.43;5.80;;;;;;;-13.81;78.69;100996.75;4898964;28;20063;-59
2023/01/18 08:04:55;;;;;;;13.02;6.32;;;;;;;-13.91;78.50;100990.88;4890795;28;20048;-59
2023/01/18 08:07:33;;;;;;;10.60;5.63;;;;;;;-13.93;78.45;100989.84;4897450;28;20048;-59
2023/01/18 08:10:18;;;;;;;10.93;6.00;;;;;;;-13.95;78.31;101001.41;4880389;28;20053;-59
2023/01/18 08:12:59;;;;;;;10.25;5.60;;;;;;;-14.07;77.41;101002.78;4884986;28;20068;-59
2023/01/18 08:15:30;;;;;;;13.00;6.00;;;;;;;-14.15;77.08;101013.72;4887579;28;20048;-59
2023/01/18 08:18:06;;;;;;;13.70;6.45;;;;;;;-14.22;76.97;101016.44;4900966;28;20711;-60
2023/01/18 08:20:36;;;;;;;12.27;6.28;;;;;;;-14.36;76.46;101023.53;4890628;28;20131;-60
2023/01/18 08:23:10;;;;;;;13.45;6.53;;;;;;;-15.19;75.93;100908.63;4901085;28;20054;-59
2023/01/18 08:25:41;;;;;;;10.07;6.10;;;;;;;-14.59;75.87;101038.09;4900813;28;20049;-60
2023/01/18 08:28:13;;;;;;;13.57;6.78;;;;;;;-14.90;75.80;101010.06;4901262;28;20045;-59
2023/01/18 08:30:50;;;;;;;13.18;6.38;;;;;;;-14.81;75.63;101056.09;4898988;28;20053;-59
2023/01/18 08:33:21;;;;;;;19.83;7.40;;;;;;;-14.89;75.43;101056.97;4900761;28;20140;-60
2023/01/18 08:35:53;;;;;;;18.73;7.05;;;;;;;-14.95;75.27;101066.41;4899152;28;20468;-60
2023/01/18 08:38:25;;;;;;;12.50;6.38;;;;;;;-15.09;74.84;101072.59;4895288;28;20049;-60
2023/01/18 08:40:56;;;;;;;14.27;6.22;;;;;;;-15.15;74.90;101078.63;4900351;28;20102;-60
2023/01/18 08:43:27;;;;;;;14.20;7.13;;;;;;;-15.24;74.84;101086.13;4901280;28;20530;-60
2023/01/18 08:45:58;;;;;;;14.45;7.57;;;;;;;-15.24;74.91;101092.03;4900836;28;20049;-60
2023/01/18 08:48:28;;;;;;;16.08;7.20;;;;;;;-15.30;74.96;101091.44;4900262;28;20048;-59
2023/01/18 08:51:05;;;;;;;13.90;6.78;;;;;;;-15.38;74.74;101092.28;4899579;28;20049;-60
2023/01/18 08:53:37;;;;;;;15.20;6.50;;;;;;;-15.29;74.89;101113.25;4891122;28;20049;-60
2023/01/18 08:56:17;;;;;;;15.15;7.00;;;;;;;-15.41;74.66;101107.00;4894341;28;20063;-61
2023/01/18 08:58:53;;;;;;;15.37;6.90;;;;;;;-15.48;74.52;101114.66;4881165;28;20045;-59
2023/01/18 09:01:26;;;;;;;21.90;7.45;;;;;;;-15.53;74.59;101123.31;4895284;28;20325;-58
2023/01/18 09:03:58;;;;;;;14.57;6.65;;;;;;;-15.61;74.34;101121.69;4887613;28;20106;-59
2023/01/18 09:06:30;;;;;;;17.27;7.03;;;;;;;-15.81;74.83;101113.06;4898286;28;20125;-60
2023/01/18 09:09:04;;;;;;;17.23;7.07;;;;;;;-15.70;74.67;101142.59;4897970;28;20507;-59
2023/01/18 09:11:34;;;;;;;23.95;10.43;;;;;;;-15.79;74.65;101141.66;4891273;28;20054;-60
2023/01/18 09:14:07;;;;;;;22.23;10.57;;;;;;;-15.89;74.89;101133.94;4898695;28;20053;-60
2023/01/18 09:16:38;;;;;;;26.10;13.43;;;;;;;-16.03;74.72;101144.16;4899091;28;20048;-59
2023/01/18 09:19:12;;;;;;;47.30;17.73;;;;;;;-16.44;74.39;101103.28;4898533;28;20134;-60
2023/01/18 09:21:47;;;;;;;46.40;18.15;;;;;;;-16.36;74.29;101137.47;4899107;28;20947;-60
2023/01/18 09:24:19;;;;;;;35.78;12.88;;;;;;;-16.46;74.38;101139.75;4887012;28;20063;-60
2023/01/18 09:26:52;;;;;;;42.20;13.63;;;;;;;-16.66;74.21;101131.03;4898036;28;20052;-59
2023/01/18 09:29:25;;;;;;;54.75;17.83;;;;;;;-16.86;73.47;101148.09;4899175;28;20059;-59
2023/01/18 09:31:59;;;;;;;87.35;26.52;;;;;;;-17.12;73.57;101161.22;4899663;28;20059;-59
2023/01/18 09:34:30;;;;;;;46.75;16.75;;;;;;;-17.37;73.79;101141.81;4889710;28;20060;-59
2023/01/18 09:37:03;;;;;;;20.17;9.45;;;;;;;-17.36;73.54;101173.56;4896208;28;20106;-59
2023/01/18 09:39:40;;;;;;;73.15;17.77;;;;;;;-17.79;73.57;101153.94;4890669;28;20051;-58
2023/01/18 09:42:33;;;;;;;26.08;12.52;;;;;;;-18.14;74.34;101145.97;4900409;28;20049;-58
2023/01/18 09:45:35;;;;;;;29.35;13.43;;;;;;;-18.10;74.69;101200.47;4828755;28;20041;-60
2023/01/18 09:48:16;;;;;;;14.98;7.80;;;;;;;-18.18;75.34;101191.25;4887609;28;20129;-59
2023/01/18 09:50:55;;;;;;;20.13;8.82;;;;;;;-18.11;75.83;101204.59;4887695;28;20048;-59
2023/01/18 09:53:43;;;;;;;14.32;8.35;;;;;;;-18.05;75.75;101219.34;4887874;28;20118;-60
2023/01/18 09:56:20;;;;;;;23.85;9.63;;;;;;;-18.57;75.68;101128.72;4880072;28;20053;-59
2023/01/18 09:59:02;;;;;;;29.30;10.48;;;;;;;-18.00;75.81;101218.25;4888515;28;20055;-58
2023/01/18 10:01:35;;;;;;;105.07;31.35;;;;;;;-18.52;75.29;101167.53;4871666;28;20430;-59
2023/01/18 10:04:16;;;;;;;86.82;26.52;;;;;;;-18.20;74.73;101238.47;4882356;28;20599;-59
2023/01/18 10:06:52;;;;;;;27.58;11.75;;;;;;;-18.31;74.67;101239.78;4873319;28;20599;-59
2023/01/18 10:09:27;;;;;;;32.67;15.90;;;;;;;-18.55;74.58;101251.97;4883667;28;20053;-59
2023/01/18 10:12:02;;;;;;;19.33;10.00;;;;;;;-19.15;74.92;101208.66;4873529;28;20142;-58
2023/01/18 10:14:47;;;;;;;21.38;9.25;;;;;;;-19.90;75.40;101112.00;4883252;28;20048;-59
2023/01/18 10:17:21;;;;;;;14.32;8.13;;;;;;;-19.15;76.15;101243.53;4872303;28;20490;-59
2023/01/18 10:20:13;;;;;;;22.45;11.68;;;;;;;-19.02;76.20;101259.88;4894184;28;20049;-60
2023/01/18 10:22:51;;;;;;;32.65;12.68;;;;;;;-18.97;76.59;101268.78;4860399;28;20049;-58
2023/01/18 10:25:31;;;;;;;49.30;16.73;;;;;;;-18.89;76.65;101263.09;4883010;28;20115;-59
2023/01/18 10:28:26;;;;;;;58.33;21.67;;;;;;;-18.85;76.32;101260.22;4872371;28;20053;-58
2023/01/18 10:31:14;;;;;;;102.68;35.08;;;;;;;-18.93;76.08;101273.41;4860256;28;20458;-58
2023/01/18 10:33:56;;;;;;;72.43;25.80;;;;;;;-18.93;75.99;101285.88;4882305;28;20140;-58
2023/01/18 10:36:31;;;;;;;36.05;14.73;;;;;;;-18.92;75.89;101287.63;4861182;28;20060;-58
2023/01/18 10:39:16;;;;;;;12.98;8.52;;;;;;;-18.89;77.16;101283.03;4881342;28;20045;-58
2023/01/18 10:42:02;;;;;;;10.50;7.60;;;;;;;-18.88;76.37;101289.78;4870508;28;20052;-57
2023/01/18 10:44:40;;;;;;;40.90;14.82;;;;;;;-18.99;75.98;101285.16;4872444;28;20643;-59
2023/01/18 10:47:12;;;;;;;51.70;17.88;;;;;;;-19.01;76.28;101306.53;4883150;28;20053;-58
2023/01/18 10:49:49;;;;;;;90.40;26.00;;;;;;;-19.11;76.28;101293.72;4872168;28;20385;-58
2023/01/18 10:52:24;;;;;;;57.38;15.63;;;;;;;-19.08;76.50;101294.06;4861464;28;20061;-58
2023/01/18 10:55:00;;;;;;;23.63;12.23;;;;;;;-19.59;76.29;101201.91;4870909;28;20053;-60
2023/01/18 10:57:34;;;;;;;15.30;8.32;;;;;;;-18.87;77.21;101296.53;4881915;28;20126;-58
2023/01/18 11:00:20;;;;;;;20.73;7.32;;;;;;;-18.75;77.37;101282.97;4881000;28;20485;-58
2023/01/18 11:02:56;;;;;;;13.30;8.15;;;;;;;-18.45;77.43;101293.78;4889039;28;20433;-58
2023/01/18 11:05:31;;;;;;;18.83;9.13;;;;;;;-18.27;77.28;101286.81;4890838;28;20067;-58
2023/01/18 11:08:24;;;;;;;14.20;7.57;;;;;;;-18.20;77.09;101282.50;4901024;28;20049;-59
2023/01/18 11:11:08;;;;;;;14.10;8.90;;;;;;;-17.98;76.67;101301.66;4890699;28;20053;-58
2023/01/18 11:13:44;;;;;;;13.05;6.82;;;;;;;-18.71;76.04;101175.44;4901275;28;20052;-58
2023/01/18 11:16:19;;;;;;;15.68;7.75;;;;;;;-17.87;75.58;101303.78;4894569;28;20121;-59
2023/01/18 11:19:04;;;;;;;14.23;7.57;;;;;;;-18.07;75.24;101266.59;4900445;28;20048;-58
2023/01/18 11:21:46;;;;;;;7.78;5.32;;;;;;;-17.73;74.77;101319.34;4893577;28;20054;-59
2023/01/18 11:24:24;;;;;;;8.57;5.95;;;;;;;-17.60;74.79;101312.50;4889962;28;20691;-59
2023/01/18 11:27:00;;;;;;;11.65;6.90;;;;;;;-17.55;74.19;101321.38;4891335;28;20100;-58
2023/01/18 11:29:33;;;;;;;13.63;7.95;;;;;;;-17.75;73.32;101290.81;4900915;28;20044;-58
2023/01/18 11:32:08;;;;;;;11.93;6.35;;;;;;;-17.87;73.32;101310.34;4898460;28;20050;-59
2023/01/18 11:34:45;;;;;;;29.85;8.75;;;;;;;-17.91;73.57;101309.13;4902154;28;20521;-59
2023/01/18 11:37:33;;;;;;;18.33;7.85;;;;;;;-17.92;73.65;101317.34;4891150;28;20064;-58
2023/01/18 11:40:28;;;;;;;8.23;5.43;;;;;;;-18.73;73.77;101190.94;4888234;28;20072;-57
2023/01/18 11:43:02;;;;;;;13.65;7.75;;;;;;;-17.87;74.13;101311.25;4890146;28;20049;-59
2023/01/18 11:45:39;;;;;;;13.65;7.65;;;;;;;-17.59;74.20;101323.38;4898412;28;20060;-59
2023/01/18 11:48:25;;;;;;;10.32;6.63;;;;;;;-18.46;73.66;101163.25;4887725;28;20067;-59
2023/01/18 11:51:00;;;;;;;15.90;7.78;;;;;;;-17.46;73.30;101312.44;4886856;28;20493;-59
2023/01/18 11:53:47;;;;;;;18.92;9.25;;;;;;;-17.74;73.18;101252.66;4898001;28;20052;-59
2023/01/18 11:56:29;;;;;;;13.80;6.50;;;;;;;-17.34;73.03;101319.47;4889517;28;20052;-58
2023/01/18 11:59:00;;;;;;;17.55;7.57;;;;;;;-17.37;72.78;101316.66;4890470;28;20060;-59
2023/01/18 12:01:57;;;;;;;13.63;7.70;;;;;;;-17.51;72.60;101288.56;4888690;28;20740;-59
2023/01/18 12:04:43;;;;;;;9.02;6.18;;;;;;;-17.49;72.50;101307.09;4880270;28;20483;-59
2023/01/18 12:07:27;;;;;;;12.52;6.85;;;;;;;-17.57;72.44;101312.84;4876751;28;20053;-59
2023/01/18 12:10:00;;;;;;;15.68;7.68;;;;;;;-17.56;72.56;101309.63;4879223;28;20608;-59
2023/01/18 12:12:51;;;;;;;15.07;8.05;;;;;;;-17.46;72.59;101314.94;4896173;28;20708;-61
2023/01/18 12:15:43;;;;;;;15.43;6.95;;;;;;;-17.44;72.59;101316.00;4878485;28;20471;-59
2023/01/18 12:18:31;;;;;;;13.57;6.97;;;;;;;-17.67;72.35;101295.06;4873016;28;20064;-59